createdAt,value
2019-03-27T00:01:52.618Z,4.4
2019-03-27T00:04:52.649Z,4.3
2019-03-27T00:07:52.627Z,4.3
2019-03-27T00:10:52.743Z,4.4
2019-03-27T00:13:52.612Z,4.3
2019-03-27T00:16:52.730Z,4.3
2019-03-27T00:19:52.678Z,4.4
2019-03-27T00:22:52.642Z,4.6
2019-03-27T00:25:52.752Z,4.6
2019-03-27T00:28:52.789Z,4.4
2019-03-27T00:31:54.461Z,4.5
2019-03-27T00:34:52.976Z,4.5
2019-03-27T00:37:52.686Z,4.4
2019-03-27T00:40:52.660Z,4.4
2019-03-27T00:43:52.689Z,4.5
2019-03-27T00:46:52.732Z,4.4
2019-03-27T00:49:52.655Z,4.4
2019-03-27T00:52:52.991Z,4.3
2019-03-27T00:55:52.602Z,4.4
2019-03-27T00:58:52.663Z,4.4
2019-03-27T01:01:52.703Z,4.3
2019-03-27T01:04:52.843Z,4.3
2019-03-27T01:07:52.601Z,4.5
2019-03-27T01:10:52.627Z,4.5
2019-03-27T01:13:52.536Z,4.4
2019-03-27T01:16:53.846Z,4.4
2019-03-27T01:19:52.664Z,4.5
2019-03-27T01:22:52.616Z,4.5
2019-03-27T01:25:52.626Z,4.4
2019-03-27T01:28:52.564Z,4.4
2019-03-27T01:31:52.614Z,4.3
2019-03-27T01:34:52.793Z,4.4
2019-03-27T01:37:52.682Z,4.5
2019-03-27T01:40:52.494Z,4.4
2019-03-27T01:43:52.493Z,4.1
2019-03-27T01:46:52.613Z,4.4
2019-03-27T01:49:52.550Z,4.4
2019-03-27T01:52:52.609Z,4.4
2019-03-27T01:55:52.720Z,4.4
2019-03-27T01:58:52.620Z,4.7
2019-03-27T02:01:52.762Z,4.5
2019-03-27T02:04:52.578Z,4.4
2019-03-27T02:07:52.626Z,4.3
2019-03-27T02:10:52.634Z,4.4
2019-03-27T02:13:52.623Z,4.3
2019-03-27T02:16:52.828Z,4.4
2019-03-27T02:19:53.170Z,4.5
2019-03-27T02:22:52.541Z,4.3
2019-03-27T02:25:52.463Z,4.3
2019-03-27T02:28:52.651Z,4.4
2019-03-27T02:31:52.708Z,4.4
2019-03-27T02:34:52.788Z,4.3
2019-03-27T02:37:52.719Z,4.3
2019-03-27T02:40:52.857Z,4.3
2019-03-27T02:43:52.589Z,4.3
2019-03-27T02:46:52.624Z,4.2
2019-03-27T02:49:53.496Z,4.2
2019-03-27T02:52:52.484Z,4.1
2019-03-27T02:55:52.725Z,4.1
2019-03-27T02:58:52.819Z,4.2
2019-03-27T03:01:53.065Z,4.2
2019-03-27T03:04:52.691Z,4.1
2019-03-27T03:07:52.623Z,4.2
2019-03-27T03:10:52.802Z,4.1
2019-03-27T03:13:52.856Z,4.1
2019-03-27T03:16:52.514Z,4.3
2019-03-27T03:19:52.644Z,4.2
2019-03-27T03:22:52.737Z,4.2
2019-03-27T03:25:52.898Z,4.2
2019-03-27T03:28:52.749Z,4.3
2019-03-27T03:31:52.561Z,4.3
2019-03-27T03:34:52.562Z,4.3
2019-03-27T03:37:52.556Z,4.3
2019-03-27T03:40:53.267Z,4.5
2019-03-27T03:43:52.543Z,4.4
2019-03-27T03:47:01.046Z,4.4
2019-03-27T03:49:52.749Z,4.1
2019-03-27T03:52:52.532Z,4.2
2019-03-27T03:55:52.547Z,4.2
2019-03-27T03:58:52.512Z,4.2
2019-03-27T04:01:52.527Z,4.1
2019-03-27T04:04:52.721Z,4.2
2019-03-27T04:07:52.774Z,4.2
2019-03-27T04:10:52.618Z,4.4
2019-03-27T04:13:52.580Z,4.5
2019-03-27T04:16:52.737Z,4.5
2019-03-27T04:19:52.690Z,4.4
2019-03-27T04:22:52.653Z,4.2
2019-03-27T04:26:11.705Z,4.3
2019-03-27T04:28:52.820Z,4.2
2019-03-27T04:31:52.626Z,4.2
2019-03-27T04:34:52.598Z,4.1
2019-03-27T04:37:52.624Z,4.2
2019-03-27T04:40:52.639Z,4.4
2019-03-27T04:43:52.773Z,4.4
2019-03-27T04:46:52.427Z,4.2
2019-03-27T04:49:52.733Z,4.1
2019-03-27T04:52:52.505Z,4.1
2019-03-27T04:55:52.542Z,4
2019-03-27T04:58:52.596Z,3.9
2019-03-27T05:01:52.634Z,3.9
2019-03-27T05:04:52.505Z,3.8
2019-03-27T05:07:52.607Z,3.8
2019-03-27T05:10:52.554Z,3.8
2019-03-27T05:13:52.595Z,3.7
2019-03-27T05:16:52.570Z,3.7
2019-03-27T05:19:52.672Z,3.7
2019-03-27T05:22:52.418Z,3.7
2019-03-27T05:25:52.422Z,3.8
2019-03-27T05:28:52.472Z,3.7
2019-03-27T05:31:52.545Z,3.8
2019-03-27T05:34:52.553Z,3.8
2019-03-27T05:37:52.728Z,3.8
2019-03-27T05:40:52.631Z,3.8
2019-03-27T05:43:52.457Z,3.7
2019-03-27T05:46:52.492Z,3.6
2019-03-27T05:49:52.541Z,3.6
2019-03-27T05:52:52.686Z,3.7
2019-03-27T05:55:52.700Z,3.5
2019-03-27T05:58:52.826Z,3.6
2019-03-27T06:01:52.575Z,3.7
2019-03-27T06:04:52.638Z,3.7
2019-03-27T06:07:52.493Z,3.7
2019-03-27T06:10:52.683Z,3.7
2019-03-27T06:13:52.565Z,3.5
2019-03-27T06:16:52.970Z,3.5
2019-03-27T06:19:52.432Z,3.5
2019-03-27T06:22:52.507Z,3.6
2019-03-27T06:25:52.557Z,3.5
2019-03-27T06:28:52.562Z,3.4
2019-03-27T06:31:52.602Z,3.4
2019-03-27T06:34:52.659Z,3.5
2019-03-27T06:37:53.112Z,3.4
2019-03-27T06:40:52.442Z,3.6
2019-03-27T06:43:52.448Z,3.6
2019-03-27T06:46:52.511Z,3.6
2019-03-27T06:49:52.629Z,3.5
2019-03-27T06:52:52.588Z,3.5
2019-03-27T06:55:52.399Z,3.5
2019-03-27T06:58:55.523Z,3.8
2019-03-27T07:01:52.618Z,3.5
2019-03-27T07:04:52.544Z,3.4
2019-03-27T07:07:52.538Z,3.5
2019-03-27T07:10:52.738Z,3.5
2019-03-27T07:13:52.494Z,3.3
2019-03-27T07:16:52.477Z,3.4
2019-03-27T07:19:52.477Z,3.5
2019-03-27T07:22:52.555Z,3.5
2019-03-27T07:25:52.602Z,3.5
2019-03-27T07:28:52.648Z,3.4
2019-03-27T07:31:52.748Z,3.5
2019-03-27T07:34:52.486Z,3.2
2019-03-27T07:37:52.465Z,3.3
2019-03-27T07:40:52.571Z,3.3
2019-03-27T07:43:52.643Z,3.4
2019-03-27T07:46:52.600Z,3.4
2019-03-27T07:49:52.583Z,3.3
2019-03-27T07:52:52.401Z,3.3
2019-03-27T07:55:52.436Z,3.3
2019-03-27T07:58:52.767Z,3.4
2019-03-27T08:01:52.531Z,3.3
2019-03-27T08:04:52.600Z,3.2
2019-03-27T08:07:52.437Z,3.2
2019-03-27T08:10:52.492Z,3.4
2019-03-27T08:13:52.615Z,3.3
2019-03-27T08:16:52.643Z,3.4
2019-03-27T08:19:52.591Z,3.2
2019-03-27T08:22:52.707Z,4.4
2019-03-27T08:25:52.962Z,4.6
2019-03-27T08:28:52.398Z,5.5
2019-03-27T08:31:52.650Z,4.3
2019-03-27T08:34:52.486Z,4.1
2019-03-27T08:37:52.556Z,4.4
2019-03-27T08:40:52.467Z,5.4
2019-03-27T08:43:52.419Z,5.7
2019-03-27T08:46:52.397Z,5.8
2019-03-27T08:49:52.482Z,5.4
2019-03-27T08:52:52.523Z,5.1
2019-03-27T08:55:52.530Z,4.8
2019-03-27T08:58:52.632Z,5.5
2019-03-27T09:01:52.478Z,5.9
2019-03-27T09:04:52.571Z,6.7
2019-03-27T09:07:52.454Z,5.6
2019-03-27T09:10:52.673Z,5.6
2019-03-27T09:13:52.580Z,5.3
2019-03-27T09:16:52.452Z,5.4
2019-03-27T09:19:52.500Z,5.2
2019-03-27T09:22:52.502Z,4.5
2019-03-27T09:25:52.483Z,4.1
2019-03-27T09:28:52.547Z,4.1
2019-03-27T09:31:52.612Z,4.1
2019-03-27T09:34:52.594Z,4.5
2019-03-27T09:37:52.352Z,4.1
2019-03-27T09:40:52.444Z,3.8
2019-03-27T09:43:52.594Z,3.5
2019-03-27T09:46:52.519Z,3.8
2019-03-27T09:49:52.665Z,3.9
2019-03-27T09:52:52.990Z,3.8
2019-03-27T09:55:52.354Z,3.6
2019-03-27T09:58:52.485Z,3.9
2019-03-27T10:01:52.446Z,3.9
2019-03-27T10:04:56.657Z,3.6
2019-03-27T10:07:52.622Z,3.4
2019-03-27T10:10:52.739Z,3.2
2019-03-27T10:13:52.673Z,3.1
2019-03-27T10:16:52.362Z,5.8
2019-03-27T10:20:04.575Z,5.1
2019-03-27T10:22:52.498Z,4.7
2019-03-27T10:25:52.497Z,4.2
2019-03-27T10:28:52.726Z,3.7
2019-03-27T10:31:52.581Z,3.7
2019-03-27T10:34:52.382Z,4.1
2019-03-27T10:37:52.371Z,3.8
2019-03-27T10:40:52.413Z,4.3
2019-03-27T10:43:52.524Z,3.8
2019-03-27T10:46:52.476Z,4
2019-03-27T10:49:52.573Z,3.6
2019-03-27T10:52:52.696Z,3.3
2019-03-27T10:55:52.306Z,3.5
2019-03-27T10:58:52.361Z,3.4
2019-03-27T11:01:52.452Z,2.8
2019-03-27T11:04:52.439Z,3.4
2019-03-27T11:07:52.535Z,3.1
2019-03-27T11:10:52.539Z,3.7
2019-03-27T11:13:52.342Z,3.9
2019-03-27T11:16:52.367Z,3.6
2019-03-27T11:19:52.480Z,3.1
2019-03-27T11:22:52.645Z,3
2019-03-27T11:25:52.540Z,3
2019-03-27T11:28:52.530Z,3.1
2019-03-27T11:31:52.273Z,2.8
2019-03-27T11:34:52.347Z,2.7
2019-03-27T11:37:52.546Z,2.5
2019-03-27T11:40:52.405Z,2.5
2019-03-27T11:43:55.713Z,2.7
2019-03-27T11:46:52.489Z,2.5
2019-03-27T11:49:52.748Z,2.5
2019-03-27T11:52:52.397Z,2.6
2019-03-27T11:55:52.492Z,2.5
2019-03-27T11:58:52.422Z,2.6
2019-03-27T12:01:52.441Z,2.6
2019-03-27T12:04:52.463Z,2.4
2019-03-27T12:07:52.914Z,2.5
2019-03-27T12:10:52.460Z,2.4
2019-03-27T12:13:52.461Z,2.2
2019-03-27T12:16:52.352Z,2.2
2019-03-27T12:19:52.372Z,2.2
2019-03-27T12:22:58.326Z,2.3
2019-03-27T12:25:55.811Z,2.3
2019-03-27T12:28:52.569Z,2.3
2019-03-27T12:31:52.330Z,2.2
2019-03-27T12:34:52.436Z,2.2
2019-03-27T12:37:52.630Z,2.2
2019-03-27T12:40:52.523Z,2.2
2019-03-27T12:43:52.466Z,2.1
2019-03-27T12:46:52.651Z,2.2
2019-03-27T12:49:52.440Z,2.1
2019-03-27T12:52:52.436Z,2.3
2019-03-27T12:55:52.531Z,2.2
2019-03-27T12:58:52.435Z,2.1
2019-03-27T13:01:52.453Z,2.4
2019-03-27T13:04:52.475Z,2.6
2019-03-27T13:07:52.338Z,2.2
2019-03-27T13:10:53.143Z,2.1
2019-03-27T13:13:52.538Z,5.3
2019-03-27T13:16:52.835Z,4.5
2019-03-27T13:19:52.483Z,4.2
2019-03-27T13:22:52.563Z,3.6
2019-03-27T13:25:52.447Z,3.1
2019-03-27T13:28:52.333Z,2.6
2019-03-27T13:31:52.366Z,2.9
2019-03-27T13:34:52.417Z,2.4
2019-03-27T13:37:52.805Z,2.4
2019-03-27T13:40:52.469Z,2.3
2019-03-27T13:43:52.333Z,2.4
2019-03-27T13:46:52.978Z,2.2
2019-03-27T13:49:52.421Z,2.1
2019-03-27T13:52:52.503Z,2.4
2019-03-27T13:55:52.462Z,2.8
2019-03-27T13:58:52.462Z,2.6
2019-03-27T14:01:52.235Z,2.2
2019-03-27T14:04:52.308Z,2.1
2019-03-27T14:07:52.311Z,4.4
2019-03-27T14:10:52.326Z,5
2019-03-27T14:13:52.384Z,5.9
2019-03-27T14:16:52.479Z,6.5
2019-03-27T14:19:52.437Z,5.5
2019-03-27T14:22:52.302Z,4.4
2019-03-27T14:25:52.412Z,4.7
2019-03-27T14:28:52.359Z,4
2019-03-27T14:31:52.748Z,3.3
2019-03-27T14:34:54.308Z,2.7
2019-03-27T14:37:52.489Z,2.6
2019-03-27T14:40:52.258Z,3.4
2019-03-27T14:43:52.316Z,3
2019-03-27T14:46:52.321Z,4.7
2019-03-27T14:49:52.500Z,3.5
2019-03-27T14:52:52.425Z,4.8
2019-03-27T14:55:52.392Z,5.2
2019-03-27T14:58:53.003Z,4.4
2019-03-27T15:01:52.581Z,4
2019-03-27T15:04:52.383Z,4.1
2019-03-27T15:13:09.737Z,2.5
2019-03-27T15:16:09.242Z,2.7
2019-03-27T15:19:09.229Z,3.2
2019-03-27T15:22:23.248Z,3.7
2019-03-27T15:25:09.177Z,3.6
2019-03-27T15:28:09.186Z,3
2019-03-27T15:31:21.273Z,3.2
2019-03-27T15:34:08.692Z,3
2019-03-27T15:37:08.959Z,3.5
2019-03-27T15:40:09.034Z,3.2
2019-03-27T15:43:09.209Z,3.1
2019-03-27T15:46:09.109Z,2.9
2019-03-27T15:49:09.209Z,3.3
2019-03-27T15:52:09.006Z,2.8
2019-03-27T15:55:09.096Z,2.5
2019-03-27T15:58:09.134Z,2.8
2019-03-27T16:01:09.129Z,2.8
2019-03-27T16:04:09.213Z,2.5
2019-03-27T16:07:09.242Z,2.1
2019-03-27T16:10:09.062Z,11.3
2019-03-27T16:13:08.994Z,9.7
2019-03-27T16:16:09.045Z,7.7
2019-03-27T16:19:09.283Z,6.4
2019-03-27T16:22:09.210Z,4.7
2019-03-27T16:25:09.228Z,4
2019-03-27T16:28:09.005Z,5.6
2019-03-27T16:31:09.099Z,5
2019-03-27T16:34:09.329Z,4.7
2019-03-27T16:37:09.359Z,4.4
2019-03-27T16:40:09.708Z,3.5
2019-03-27T16:43:09.236Z,3.3
2019-03-27T16:46:09.146Z,2.7
2019-03-27T16:49:09.182Z,3.8
2019-03-27T16:52:09.281Z,2.9
2019-03-27T16:55:09.099Z,2.5
2019-03-27T16:58:09.161Z,2.6
2019-03-27T17:01:09.036Z,3.1
2019-03-27T17:04:09.128Z,2.9
2019-03-27T17:07:09.200Z,2.7
2019-03-27T17:10:09.224Z,2.9
2019-03-27T17:13:09.270Z,2.8
2019-03-27T17:16:09.234Z,2.4
2019-03-27T17:19:09.313Z,2.6
2019-03-27T17:22:20.422Z,3.1
2019-03-27T17:25:09.180Z,3.1
2019-03-27T17:28:09.186Z,2.5
2019-03-27T17:31:09.486Z,2.4
2019-03-27T17:34:09.480Z,2.6
2019-03-27T17:37:09.272Z,2.5
2019-03-27T17:40:09.151Z,2.5
2019-03-27T17:43:09.170Z,2.2
2019-03-27T17:46:09.221Z,1.9
2019-03-27T17:49:09.220Z,7.6
2019-03-27T17:52:08.897Z,7.3
2019-03-27T17:55:09.084Z,5.8
2019-03-27T17:58:09.083Z,4.2
2019-03-27T18:01:09.377Z,4.9
2019-03-27T18:04:09.260Z,3.5
2019-03-27T18:07:09.651Z,3.4
2019-03-27T18:10:08.991Z,2.8
2019-03-27T18:13:08.992Z,2.5
2019-03-27T18:16:09.081Z,3.1
2019-03-27T18:19:09.270Z,3.3
2019-03-27T18:22:09.137Z,3.4
2019-03-27T18:25:09.159Z,3.7
2019-03-27T18:28:09.264Z,3.7
2019-03-27T18:31:09.001Z,4.4
2019-03-27T18:34:08.802Z,5.1
2019-03-27T18:37:09.177Z,4.4
2019-03-27T18:40:08.865Z,3.8
2019-03-27T18:43:08.953Z,4.1
2019-03-27T18:46:09.171Z,4.8
2019-03-27T18:49:11.059Z,4.6
2019-03-27T18:52:09.072Z,4.1
2019-03-27T18:55:09.182Z,3.3
2019-03-27T18:58:09.513Z,3.1
2019-03-27T19:01:09.019Z,2.9
2019-03-27T19:04:09.065Z,2.8
2019-03-27T19:07:09.087Z,2.9
2019-03-27T19:10:09.103Z,2.8
2019-03-27T19:13:09.150Z,3
2019-03-27T19:16:08.876Z,6.2
2019-03-27T19:19:08.967Z,4.4
2019-03-27T19:22:09.017Z,3.9
2019-03-27T19:25:09.154Z,3.2
2019-03-27T19:28:09.086Z,3.6
2019-03-27T19:31:09.253Z,3
2019-03-27T19:34:08.906Z,2.6
2019-03-27T19:37:09.613Z,2.3
2019-03-27T19:40:09.894Z,2.5
2019-03-27T19:43:10.067Z,2.6
2019-03-27T19:46:09.188Z,2.6
2019-03-27T19:49:09.352Z,2.1
2019-03-27T19:52:09.158Z,2.6
2019-03-27T19:55:09.375Z,3.3
2019-03-27T19:58:09.117Z,3.3
2019-03-27T20:01:09.145Z,3.9
2019-03-27T20:04:09.383Z,5.4
2019-03-27T20:07:08.920Z,4.4
2019-03-27T20:10:09.106Z,4.4
2019-03-27T20:13:09.326Z,4.2
2019-03-27T20:16:10.338Z,4.5
2019-03-27T20:19:09.271Z,4.3
2019-03-27T20:22:09.011Z,5.8
2019-03-27T20:25:08.989Z,5.1
2019-03-27T20:28:09.140Z,3.9
2019-03-27T20:31:09.137Z,4
2019-03-27T20:34:09.193Z,3.4
2019-03-27T20:37:09.355Z,3.3
2019-03-27T20:40:09.158Z,5.8
2019-03-27T20:43:09.000Z,5.3
2019-03-27T20:46:09.121Z,5.2
2019-03-27T20:49:09.228Z,8.6
2019-03-27T20:52:09.140Z,6.4
2019-03-27T20:55:09.679Z,5.6
2019-03-27T20:58:08.939Z,5.2
2019-03-27T21:01:08.996Z,5.3
2019-03-27T21:04:09.041Z,4.7
2019-03-27T21:07:09.208Z,4.8
2019-03-27T21:10:09.162Z,5.6
2019-03-27T21:13:08.654Z,6.9
2019-03-27T21:16:08.962Z,6.3
2019-03-27T21:19:09.112Z,5.6
2019-03-27T21:22:09.560Z,5
2019-03-27T21:25:10.420Z,4.7
2019-03-27T21:28:09.001Z,4.8
2019-03-27T21:31:08.963Z,4.7
2019-03-27T21:34:08.992Z,5
2019-03-27T21:37:09.125Z,4.3
2019-03-27T21:40:09.099Z,4.2
2019-03-27T21:43:11.085Z,4.7
2019-03-27T21:46:08.873Z,5.3
2019-03-27T21:49:08.946Z,4.5
2019-03-27T21:52:09.060Z,4.2
2019-03-27T21:55:23.612Z,4.7
2019-03-27T21:58:09.012Z,4.7
2019-03-27T22:01:09.172Z,4.7
2019-03-27T22:04:08.907Z,5.2
2019-03-27T22:07:09.220Z,5
2019-03-27T22:10:09.103Z,4.7
2019-03-27T22:13:09.100Z,4.5
2019-03-27T22:16:09.177Z,3.9
2019-03-27T22:19:08.916Z,4.4
2019-03-27T22:22:08.935Z,4.4
2019-03-27T22:25:08.908Z,5.4
2019-03-27T22:28:09.148Z,4.4
2019-03-27T22:31:09.227Z,4
2019-03-27T22:34:09.105Z,3.6
2019-03-27T22:37:08.953Z,3.3
2019-03-27T22:40:08.961Z,3.9
2019-03-27T22:43:08.979Z,3.6
2019-03-27T22:46:09.101Z,3.2
2019-03-27T22:49:09.425Z,3.3
2019-03-27T22:52:09.249Z,3.2
2019-03-27T22:55:08.883Z,3.7
2019-03-27T22:58:09.094Z,3.3
2019-03-27T23:01:08.990Z,3.3
2019-03-27T23:04:09.109Z,3.1
2019-03-27T23:07:09.180Z,2.9
2019-03-27T23:10:08.869Z,3
2019-03-27T23:13:08.884Z,2.8
2019-03-27T23:16:08.927Z,3
2019-03-27T23:19:08.860Z,3.2
2019-03-27T23:22:09.001Z,2.9
2019-03-27T23:25:09.067Z,3.1
2019-03-27T23:28:09.131Z,3.4
2019-03-27T23:31:09.015Z,3.1
2019-03-27T23:34:08.634Z,3.5
2019-03-27T23:37:08.652Z,3.4
2019-03-27T23:40:08.721Z,3.2
2019-03-27T23:43:08.995Z,3.2
2019-03-27T23:46:09.062Z,3
2019-03-27T23:49:08.864Z,2.9
2019-03-27T23:52:08.902Z,2.8
2019-03-27T23:55:09.421Z,3.1
2019-03-27T23:58:08.951Z,3
